createdAt,value
2022-08-03T00:01:36.614Z,100346.66
2022-08-03T00:04:39.056Z,100351.66
2022-08-03T00:07:41.208Z,100356.63
2022-08-03T00:10:43.981Z,100351.97
2022-08-03T00:13:46.116Z,100359.28
2022-08-03T00:16:48.497Z,100363.91
2022-08-03T00:19:50.602Z,100362.87
2022-08-03T00:22:52.987Z,100361.38
2022-08-03T00:25:55.247Z,100360.00
2022-08-03T00:28:57.692Z,100365.06
2022-08-03T00:32:00.461Z,100358.87
2022-08-03T00:35:09.845Z,100363.56
2022-08-03T00:38:14.549Z,100370.78
2022-08-03T00:41:16.954Z,100371.38
2022-08-03T00:44:19.068Z,100377.59
2022-08-03T00:47:21.502Z,100378.66
2022-08-03T00:50:25.322Z,100381.19
2022-08-03T00:53:28.647Z,100380.44
2022-08-03T00:56:30.830Z,100375.63
2022-08-03T00:59:33.261Z,100380.53
2022-08-03T01:02:35.913Z,100384.59
2022-08-03T01:05:52.628Z,100383.28
2022-08-03T01:08:58.424Z,100381.72
2022-08-03T01:12:14.742Z,100380.34
2022-08-03T01:15:46.390Z,100378.19
2022-08-03T01:19:01.645Z,100379.00
2022-08-03T01:22:16.179Z,100379.00
2022-08-03T01:25:37.311Z,100386.75
2022-08-03T01:28:47.807Z,100383.28
2022-08-03T01:32:53.392Z,100378.75
2022-08-03T01:35:47.453Z,100382.13
2022-08-03T01:38:57.298Z,100386.22
2022-08-03T01:42:06.057Z,100378.81
2022-08-03T01:45:12.491Z,100381.34
2022-08-03T01:48:17.633Z,100382.81
2022-08-03T01:51:22.256Z,100381.41
2022-08-03T01:54:26.517Z,100378.31
2022-08-03T01:57:30.361Z,100366.69
2022-08-03T02:00:33.146Z,100369.03
2022-08-03T02:03:38.386Z,100372.87
2022-08-03T02:07:03.449Z,100377.59
2022-08-03T02:10:07.420Z,100371.81
2022-08-03T02:13:10.739Z,100375.28
2022-08-03T02:16:14.238Z,100371.50
2022-08-03T02:19:18.069Z,100378.12
2022-08-03T02:22:22.032Z,100374.94
2022-08-03T02:25:24.280Z,100375.69
2022-08-03T02:28:31.950Z,100372.81
2022-08-03T02:31:38.295Z,100372.37
2022-08-03T02:34:44.625Z,100378.66
2022-08-03T02:37:50.340Z,100378.03
2022-08-03T02:40:56.205Z,100374.19
2022-08-03T02:44:05.595Z,100384.25
2022-08-03T02:47:12.516Z,100383.34
2022-08-03T02:50:17.357Z,100382.09
2022-08-03T02:53:22.305Z,100377.97
2022-08-03T02:56:25.954Z,100378.66
2022-08-03T02:59:31.240Z,100374.84
2022-08-03T03:02:34.891Z,100385.59
2022-08-03T03:05:55.790Z,100390.53
2022-08-03T03:09:00.366Z,100383.44
2022-08-03T03:12:03.247Z,100379.00
2022-08-03T03:15:06.614Z,100384.19
2022-08-03T03:18:10.543Z,100382.34
2022-08-03T03:21:16.394Z,100385.47
2022-08-03T03:24:21.123Z,100381.34
2022-08-03T03:27:23.437Z,100380.00
2022-08-03T03:30:26.271Z,100385.72
2022-08-03T03:33:28.787Z,100383.37
2022-08-03T03:36:31.267Z,100387.31
2022-08-03T03:39:33.469Z,100391.06
2022-08-03T03:42:36.296Z,100385.47
2022-08-03T03:45:41.917Z,100385.25
2022-08-03T03:48:44.828Z,100391.25
2022-08-03T03:51:47.131Z,100387.19
2022-08-03T03:54:49.538Z,100395.28
2022-08-03T03:57:51.677Z,100393.28
2022-08-03T04:00:54.272Z,100395.09
2022-08-03T04:03:56.895Z,100389.03
2022-08-03T04:07:17.833Z,100394.97
2022-08-03T04:10:42.322Z,100395.06
2022-08-03T04:13:49.361Z,100395.94
2022-08-03T04:16:56.470Z,100400.63
2022-08-03T04:20:01.362Z,100405.12
2022-08-03T04:23:05.337Z,100410.13
2022-08-03T04:26:21.180Z,100414.31
2022-08-03T04:29:25.994Z,100418.16
2022-08-03T04:32:29.106Z,100419.72
2022-08-03T04:35:58.648Z,100420.78
2022-08-03T04:39:16.496Z,100419.38
2022-08-03T04:42:22.435Z,100421.62
2022-08-03T04:45:25.839Z,100430.28
2022-08-03T04:48:28.637Z,100435.03
2022-08-03T04:51:31.781Z,100438.06
2022-08-03T04:54:42.442Z,100445.88
2022-08-03T04:57:44.633Z,100450.28
2022-08-03T05:00:51.006Z,100456.38
2022-08-03T05:03:53.262Z,100460.31
2022-08-03T05:06:56.001Z,100460.59
2022-08-03T05:10:02.966Z,100467.69
2022-08-03T05:13:05.903Z,100462.03
2022-08-03T05:16:08.161Z,100474.97
2022-08-03T05:19:10.639Z,100468.34
2022-08-03T05:22:12.753Z,100480.91
2022-08-03T05:25:19.183Z,100469.38
2022-08-03T05:28:22.403Z,100479.16
2022-08-03T05:31:24.833Z,100484.53
2022-08-03T05:34:27.006Z,100486.56
2022-08-03T05:37:29.578Z,100491.19
2022-08-03T05:40:32.132Z,100483.91
2022-08-03T05:43:34.601Z,100495.06
2022-08-03T05:46:39.095Z,100484.09
2022-08-03T05:49:41.849Z,100485.09
2022-08-03T05:52:44.809Z,100492.47
2022-08-03T05:55:50.232Z,100489.25
2022-08-03T05:58:55.043Z,100496.47
2022-08-03T06:01:57.797Z,100504.00
2022-08-03T06:05:00.520Z,100508.63
2022-08-03T06:08:03.710Z,100515.84
2022-08-03T06:11:06.619Z,100515.53
2022-08-03T06:14:08.754Z,100515.97
2022-08-03T06:17:11.385Z,100515.97
2022-08-03T06:20:17.283Z,100523.00
2022-08-03T06:23:20.340Z,100512.28
2022-08-03T06:26:24.685Z,100519.41
2022-08-03T06:29:27.724Z,100525.53
2022-08-03T06:32:29.885Z,100516.78
2022-08-03T06:35:33.584Z,100515.37
2022-08-03T06:38:37.379Z,100516.03
2022-08-03T06:41:44.699Z,100514.75
2022-08-03T06:44:47.310Z,100520.53
2022-08-03T06:48:03.784Z,100522.91
2022-08-03T06:51:05.915Z,100519.22
2022-08-03T06:54:09.308Z,100521.53
2022-08-03T06:57:11.701Z,100525.56
2022-08-03T07:00:14.706Z,100536.78
2022-08-03T07:03:17.824Z,100528.69
2022-08-03T07:06:20.327Z,100537.12
2022-08-03T07:09:22.583Z,100543.16
2022-08-03T07:12:27.075Z,100527.56
2022-08-03T07:15:54.344Z,100529.06
2022-08-03T07:18:51.963Z,100526.75
2022-08-03T07:21:54.178Z,100528.75
2022-08-03T07:25:01.717Z,100529.19
2022-08-03T07:28:04.104Z,100530.09
2022-08-03T07:31:06.555Z,100531.50
2022-08-03T07:34:08.690Z,100525.31
2022-08-03T07:37:11.404Z,100528.13
2022-08-03T07:40:13.712Z,100524.31
2022-08-03T07:43:17.561Z,100519.66
2022-08-03T07:46:19.723Z,100528.31
2022-08-03T07:49:22.231Z,100532.16
2022-08-03T07:52:43.119Z,100526.75
2022-08-03T07:55:45.562Z,100524.63
2022-08-03T07:58:47.685Z,100516.34
2022-08-03T08:01:53.015Z,100517.28
2022-08-03T08:04:55.487Z,100511.84
2022-08-03T08:07:57.645Z,100511.28
2022-08-03T08:11:00.117Z,100516.44
2022-08-03T08:14:02.928Z,100511.03
2022-08-03T08:17:07.372Z,100508.28
2022-08-03T08:20:11.826Z,100508.81
2022-08-03T08:23:37.923Z,100505.56
2022-08-03T08:26:37.218Z,100499.13
2022-08-03T08:29:52.574Z,100497.75
2022-08-03T08:32:58.107Z,100508.84
2022-08-03T08:36:00.746Z,100508.69
2022-08-03T08:39:03.347Z,100501.03
2022-08-03T08:42:05.848Z,100498.34
2022-08-03T08:45:09.387Z,100488.91
2022-08-03T08:48:13.892Z,100498.16
2022-08-03T08:51:19.445Z,100496.50
2022-08-03T08:54:23.777Z,100488.75
2022-08-03T08:57:42.486Z,100496.03
2022-08-03T09:00:45.683Z,100491.44
2022-08-03T09:03:48.711Z,100488.16
2022-08-03T09:07:17.604Z,100485.31
2022-08-03T09:10:21.947Z,100486.94
2022-08-03T09:13:24.818Z,100482.34
2022-08-03T09:16:26.950Z,100474.44
2022-08-03T09:19:33.925Z,100480.91
2022-08-03T09:22:36.309Z,100477.87
2022-08-03T09:25:41.447Z,100474.94
2022-08-03T09:28:52.862Z,100472.97
2022-08-03T09:32:05.191Z,100470.25
2022-08-03T09:35:09.554Z,100469.31
2022-08-03T09:38:14.846Z,100475.03
2022-08-03T09:41:20.111Z,100472.91
2022-08-03T09:44:37.826Z,100468.66
2022-08-03T09:47:44.674Z,100472.22
2022-08-03T09:50:56.831Z,100457.06
2022-08-03T09:54:03.933Z,100457.16
2022-08-03T09:57:06.537Z,100459.81
2022-08-03T10:00:16.390Z,100457.47
2022-08-03T10:03:18.846Z,100454.31
2022-08-03T10:06:22.349Z,100444.66
2022-08-03T10:09:31.388Z,100450.34
2022-08-03T10:12:34.205Z,100443.78
2022-08-03T10:16:24.017Z,100446.94
2022-08-03T10:19:01.747Z,100443.13
2022-08-03T10:22:10.543Z,100436.56
2022-08-03T10:25:13.537Z,100445.34
2022-08-03T10:28:20.130Z,100437.88
2022-08-03T10:31:23.929Z,100435.78
2022-08-03T10:34:29.079Z,100425.41
2022-08-03T10:37:34.498Z,100430.00
2022-08-03T10:40:48.605Z,100426.97
2022-08-03T10:44:04.607Z,100430.37
2022-08-03T10:47:07.358Z,100412.78
2022-08-03T10:50:10.026Z,100404.03
2022-08-03T10:53:12.797Z,100419.44
2022-08-03T10:57:14.235Z,100411.25
2022-08-03T11:00:22.581Z,100411.91
2022-08-03T11:03:24.757Z,100399.06
2022-08-03T11:06:28.724Z,100408.38
2022-08-03T11:09:44.045Z,100393.37
2022-08-03T11:12:47.092Z,100386.91
2022-08-03T11:15:51.754Z,100390.63
2022-08-03T11:19:00.355Z,100372.91
2022-08-03T11:22:02.609Z,100375.84
2022-08-03T11:25:05.971Z,100374.94
2022-08-03T11:28:28.538Z,100378.94
2022-08-03T11:31:49.696Z,100374.47
2022-08-03T11:35:14.746Z,100374.06
2022-08-03T11:38:19.224Z,100368.84
2022-08-03T11:41:33.515Z,100362.06
2022-08-03T11:44:47.883Z,100356.78
2022-08-03T11:47:54.466Z,100359.47
2022-08-03T11:50:57.064Z,100351.25
2022-08-03T11:54:05.439Z,100365.34
2022-08-03T11:57:07.921Z,100360.88
2022-08-03T12:00:24.440Z,100359.06
2022-08-03T12:03:33.616Z,100347.75
2022-08-03T12:06:54.910Z,100345.16
2022-08-03T12:10:12.686Z,100341.03
2022-08-03T12:14:44.706Z,100347.62
2022-08-03T12:16:38.231Z,100338.50
2022-08-03T12:19:44.095Z,100345.91
2022-08-03T12:22:46.630Z,100338.25
2022-08-03T12:25:49.592Z,100341.81
2022-08-03T12:28:52.499Z,100337.75
2022-08-03T12:31:55.936Z,100329.25
2022-08-03T12:35:01.680Z,100335.19
2022-08-03T12:38:04.401Z,100334.34
2022-08-03T12:41:13.439Z,100316.59
2022-08-03T12:44:15.687Z,100319.69
2022-08-03T12:47:18.256Z,100319.47
2022-08-03T12:50:34.008Z,100310.31
2022-08-03T12:53:36.898Z,100301.84
2022-08-03T12:56:58.064Z,100310.56
2022-08-03T13:00:21.419Z,100306.13
2022-08-03T13:03:50.459Z,100312.25
2022-08-03T13:07:14.180Z,100309.03
2022-08-03T13:10:33.412Z,100303.72
2022-08-03T13:13:39.671Z,100300.00
2022-08-03T13:16:41.817Z,100296.44
2022-08-03T13:19:46.122Z,100301.06
2022-08-03T13:22:48.748Z,100288.59
2022-08-03T13:25:55.693Z,100288.69
2022-08-03T13:28:58.370Z,100282.31
2022-08-03T13:32:02.239Z,100284.25
2022-08-03T13:35:05.448Z,100277.37
2022-08-03T13:38:07.984Z,100275.16
2022-08-03T13:41:10.225Z,100275.78
2022-08-03T13:44:29.554Z,100285.84
2022-08-03T13:47:32.485Z,100275.41
2022-08-03T13:50:37.569Z,100275.00
2022-08-03T13:53:41.940Z,100264.09
2022-08-03T13:56:50.193Z,100260.03
2022-08-03T13:59:52.419Z,100252.97
2022-08-03T14:03:06.578Z,100265.59
2022-08-03T14:06:12.125Z,100246.25
2022-08-03T14:09:15.022Z,100252.19
2022-08-03T14:12:17.803Z,100250.81
2022-08-03T14:15:19.979Z,100241.00
2022-08-03T14:18:29.118Z,100238.47
2022-08-03T14:21:35.927Z,100239.19
2022-08-03T14:24:38.405Z,100237.53
2022-08-03T14:27:40.530Z,100239.69
2022-08-03T14:30:43.054Z,100233.19
2022-08-03T14:33:45.213Z,100224.78
2022-08-03T14:36:47.718Z,100224.22
2022-08-03T14:40:05.915Z,100227.03
2022-08-03T14:43:08.470Z,100224.38
2022-08-03T14:46:10.617Z,100225.69
2022-08-03T14:50:37.134Z,100222.47
2022-08-03T14:52:36.006Z,100220.34
2022-08-03T14:55:49.596Z,100215.41
2022-08-03T14:58:53.675Z,100213.19
2022-08-03T15:02:04.587Z,100218.34
2022-08-03T15:05:10.743Z,100220.84
2022-08-03T15:08:13.491Z,100214.91
2022-08-03T15:11:15.660Z,100219.59
2022-08-03T15:14:18.167Z,100217.22
2022-08-03T15:17:24.516Z,100214.09
2022-08-03T15:20:40.950Z,100208.50
2022-08-03T15:23:45.827Z,100210.81
2022-08-03T15:26:48.358Z,100217.97
2022-08-03T15:30:06.738Z,100206.44
2022-08-03T15:33:12.283Z,100207.13
2022-08-03T15:36:14.448Z,100204.78
2022-08-03T15:39:16.980Z,100208.34
2022-08-03T15:42:19.188Z,100205.63
2022-08-03T15:45:23.560Z,100206.59
2022-08-03T15:48:26.458Z,100200.22
2022-08-03T15:51:29.733Z,100211.06
2022-08-03T15:54:31.884Z,100199.03
2022-08-03T15:57:34.647Z,100202.50
2022-08-03T16:00:57.642Z,100200.44
2022-08-03T16:04:00.835Z,100200.22
2022-08-03T16:07:03.059Z,100202.09
2022-08-03T16:10:06.143Z,100193.88
2022-08-03T16:13:08.864Z,100189.91
2022-08-03T16:16:11.320Z,100193.81
2022-08-03T16:19:13.559Z,100195.63
2022-08-03T16:22:17.398Z,100195.97
2022-08-03T16:25:22.002Z,100192.56
2022-08-03T16:28:24.511Z,100191.91
2022-08-03T16:31:28.726Z,100191.22
2022-08-03T16:34:31.313Z,100187.38
2022-08-03T16:37:38.733Z,100193.97
2022-08-03T16:40:41.952Z,100189.28
2022-08-03T16:43:44.095Z,100185.38
2022-08-03T16:46:47.179Z,100179.47
2022-08-03T16:49:55.507Z,100180.44
2022-08-03T16:52:58.819Z,100182.22
2022-08-03T16:56:01.061Z,100188.00
2022-08-03T16:59:04.649Z,100192.09
2022-08-03T17:02:25.331Z,100187.03
2022-08-03T17:05:43.865Z,100194.41
2022-08-03T17:08:55.442Z,100195.00
2022-08-03T17:11:58.164Z,100199.78
2022-08-03T17:15:02.720Z,100198.00
2022-08-03T17:18:08.966Z,100205.72
2022-08-03T17:21:11.760Z,100203.63
2022-08-03T17:24:20.699Z,100211.34
2022-08-03T17:28:49.512Z,100210.91
2022-08-03T17:31:23.287Z,100212.09
2022-08-03T17:34:32.254Z,100211.88
2022-08-03T17:37:58.241Z,100215.75
2022-08-03T17:40:57.947Z,100216.09
2022-08-03T17:44:15.446Z,100213.97
2022-08-03T17:47:23.690Z,100223.81
2022-08-03T17:50:50.363Z,100217.50
2022-08-03T17:54:20.437Z,100217.59
2022-08-03T17:58:01.331Z,100221.62
2022-08-03T18:02:00.420Z,100219.41
2022-08-03T18:04:55.316Z,100223.19
2022-08-03T18:08:02.527Z,100224.09
2022-08-03T18:11:14.344Z,100226.69
2022-08-03T18:14:29.430Z,100225.25
2022-08-03T18:17:58.101Z,100236.87
2022-08-03T18:20:56.820Z,100231.50
2022-08-03T18:24:03.015Z,100235.25
2022-08-03T18:27:08.016Z,100237.16
2022-08-03T18:30:12.920Z,100238.22
2022-08-03T18:34:19.855Z,100243.81
2022-08-03T18:36:40.274Z,100249.84
2022-08-03T18:39:49.672Z,100251.50
2022-08-03T18:42:55.613Z,100250.91
2022-08-03T18:46:02.799Z,100244.91
2022-08-03T18:49:15.901Z,100257.91
2022-08-03T18:52:39.347Z,100263.50
2022-08-03T18:56:01.386Z,100264.09
2022-08-03T18:59:15.780Z,100268.88
2022-08-03T19:02:35.288Z,100262.62
2022-08-03T19:06:01.958Z,100271.09
2022-08-03T19:09:16.830Z,100276.66
2022-08-03T19:12:32.314Z,100274.97
2022-08-03T19:15:50.932Z,100276.59
2022-08-03T19:18:55.391Z,100281.56
2022-08-03T19:21:59.453Z,100273.88
2022-08-03T19:25:04.552Z,100281.94
2022-08-03T19:28:08.723Z,100284.41
2022-08-03T19:31:11.721Z,100286.03
2022-08-03T19:34:18.805Z,100286.66
2022-08-03T19:37:22.066Z,100289.34
2022-08-03T19:40:27.651Z,100294.84
2022-08-03T19:43:53.163Z,100293.31
2022-08-03T19:47:17.169Z,100293.66
2022-08-03T19:50:20.710Z,100305.50
2022-08-03T19:53:25.211Z,100294.94
2022-08-03T19:56:44.109Z,100305.47
2022-08-03T19:59:49.875Z,100309.75
2022-08-03T20:02:52.876Z,100311.81
2022-08-03T20:05:55.604Z,100308.22
2022-08-03T20:08:58.657Z,100311.69
2022-08-03T20:12:01.503Z,100311.03
2022-08-03T20:15:04.677Z,100315.16
2022-08-03T20:18:07.112Z,100316.50
2022-08-03T20:21:23.188Z,100309.31
2022-08-03T20:24:28.190Z,100313.38
2022-08-03T20:28:07.672Z,100306.97
2022-08-03T20:31:01.947Z,100306.31
2022-08-03T20:34:06.271Z,100307.72
2022-08-03T20:37:09.478Z,100308.37
2022-08-03T20:40:14.208Z,100308.00
2022-08-03T20:43:19.844Z,100305.69
2022-08-03T20:46:32.658Z,100306.53
2022-08-03T20:49:45.956Z,100305.81
2022-08-03T20:52:49.743Z,100301.81
2022-08-03T20:56:02.102Z,100305.47
2022-08-03T20:59:07.031Z,100303.56
2022-08-03T21:02:29.003Z,100310.34
2022-08-03T21:05:51.038Z,100306.75
2022-08-03T21:09:04.184Z,100303.16
2022-08-03T21:12:12.079Z,100300.84
2022-08-03T21:16:02.313Z,100308.69
2022-08-03T21:18:45.694Z,100313.22
2022-08-03T21:21:50.194Z,100307.44
2022-08-03T21:24:55.901Z,100320.81
2022-08-03T21:27:59.901Z,100315.47
2022-08-03T21:31:02.555Z,100321.94
2022-08-03T21:34:05.304Z,100323.88
2022-08-03T21:37:07.606Z,100332.16
2022-08-03T21:40:12.742Z,100327.00
2022-08-03T21:43:14.905Z,100327.44
2022-08-03T21:46:18.990Z,100335.78
2022-08-03T21:50:07.501Z,100338.53
2022-08-03T21:52:47.529Z,100341.03
2022-08-03T21:56:07.165Z,100339.84
2022-08-03T21:59:16.849Z,100339.34
2022-08-03T22:02:24.225Z,100340.72
2022-08-03T22:05:42.501Z,100341.53
2022-08-03T22:08:46.637Z,100352.75
2022-08-03T22:11:50.906Z,100343.81
2022-08-03T22:15:01.184Z,100351.91
2022-08-03T22:18:04.858Z,100347.56
2022-08-03T22:21:11.578Z,100348.94
2022-08-03T22:24:19.309Z,100347.28
2022-08-03T22:27:30.893Z,100353.91
2022-08-03T22:30:33.672Z,100350.47
2022-08-03T22:33:36.529Z,100350.84
2022-08-03T22:36:40.459Z,100355.59
2022-08-03T22:39:43.817Z,100359.19
2022-08-03T22:42:49.378Z,100355.72
2022-08-03T22:46:09.129Z,100358.34
2022-08-03T22:49:16.486Z,100356.00
2022-08-03T22:52:19.710Z,100365.44
2022-08-03T22:55:24.831Z,100366.00
2022-08-03T22:58:27.407Z,100364.69
2022-08-03T23:01:37.063Z,100361.38
2022-08-03T23:04:41.205Z,100356.81
2022-08-03T23:07:44.718Z,100359.91
2022-08-03T23:10:47.968Z,100364.50
2022-08-03T23:13:54.064Z,100369.47
2022-08-03T23:16:56.737Z,100363.34
2022-08-03T23:20:06.320Z,100372.81
2022-08-03T23:23:08.696Z,100378.00
2022-08-03T23:26:12.940Z,100379.37
2022-08-03T23:29:16.214Z,100376.06
2022-08-03T23:32:20.965Z,100382.47
2022-08-03T23:36:29.846Z,100373.84
2022-08-03T23:39:04.959Z,100382.47
2022-08-03T23:42:07.388Z,100374.47
2022-08-03T23:45:11.656Z,100377.94
2022-08-03T23:48:14.051Z,100376.97
2022-08-03T23:51:43.625Z,100379.31
2022-08-03T23:55:00.916Z,100377.81
2022-08-03T23:58:10.703Z,100376.13
